createdAt,value
2022-09-15T00:00:39.283Z,19.35
2022-09-15T00:03:24.385Z,20.40
2022-09-15T00:06:09.960Z,18.95
2022-09-15T00:08:55.189Z,20.02
2022-09-15T00:11:40.252Z,18.83
2022-09-15T00:14:25.212Z,19.80
2022-09-15T00:17:10.327Z,20.85
2022-09-15T00:19:57.800Z,19.67
2022-09-15T00:22:43.376Z,21.30
2022-09-15T00:25:28.188Z,19.77
2022-09-15T00:28:15.247Z,21.83
2022-09-15T00:31:00.094Z,19.30
2022-09-15T00:33:50.255Z,17.10
2022-09-15T00:36:35.103Z,19.15
2022-09-15T00:39:20.121Z,18.55
2022-09-15T00:42:05.252Z,20.17
2022-09-15T00:44:56.361Z,17.48
2022-09-15T00:47:41.486Z,20.55
2022-09-15T00:50:26.602Z,21.65
2022-09-15T00:53:12.950Z,22.58
2022-09-15T00:55:59.810Z,24.02
2022-09-15T00:58:56.867Z,26.92
2022-09-15T01:01:44.290Z,22.77
2022-09-15T01:04:29.596Z,21.15
2022-09-15T01:07:18.348Z,23.23
2022-09-15T01:10:28.947Z,24.38
2022-09-15T01:13:14.659Z,20.90
2022-09-15T01:19:21.403Z,20.05
2022-09-15T01:22:05.999Z,18.70
2022-09-15T01:25:00.188Z,19.83
2022-09-15T01:28:03.407Z,20.40
2022-09-15T01:31:17.297Z,21.40
2022-09-15T01:34:08.858Z,21.73
2022-09-15T01:37:02.713Z,19.60
2022-09-15T01:39:52.197Z,20.95
2022-09-15T01:42:37.891Z,19.42
2022-09-15T01:45:30.458Z,21.50
2022-09-15T01:48:17.804Z,19.00
2022-09-15T01:51:05.544Z,19.30
2022-09-15T01:53:52.378Z,21.48
2022-09-15T01:56:38.962Z,19.40
2022-09-15T01:59:24.670Z,18.52
2022-09-15T02:02:22.409Z,21.08
2022-09-15T02:05:17.538Z,21.20
2022-09-15T02:08:04.922Z,19.00
2022-09-15T02:11:04.598Z,19.23
2022-09-15T02:14:05.586Z,18.27
2022-09-15T02:16:53.422Z,20.98
2022-09-15T02:19:41.192Z,18.90
2022-09-15T02:22:32.156Z,18.95
2022-09-15T02:25:24.797Z,23.10
2022-09-15T02:28:11.889Z,18.33
2022-09-15T02:30:58.767Z,20.70
2022-09-15T02:34:10.302Z,22.13
2022-09-15T02:36:56.586Z,22.52
2022-09-15T02:39:48.692Z,20.00
2022-09-15T02:42:33.887Z,22.00
2022-09-15T02:45:19.612Z,19.65
2022-09-15T02:48:08.686Z,21.90
2022-09-15T02:50:53.176Z,22.63
2022-09-15T02:53:38.249Z,20.85
2022-09-15T02:56:23.354Z,22.73
2022-09-15T02:59:08.488Z,18.60
2022-09-15T03:01:53.582Z,21.88
2022-09-15T03:04:38.382Z,20.33
2022-09-15T03:07:24.341Z,22.17
2022-09-15T03:10:11.505Z,21.77
2022-09-15T03:12:56.068Z,22.02
2022-09-15T03:15:41.176Z,22.08
2022-09-15T03:18:26.149Z,19.98
2022-09-15T03:21:13.441Z,19.42
2022-09-15T03:23:58.331Z,20.13
2022-09-15T03:26:43.095Z,22.23
2022-09-15T03:29:28.090Z,20.70
2022-09-15T03:32:13.416Z,21.02
2022-09-15T03:34:58.662Z,27.67
2022-09-15T03:37:43.383Z,21.98
2022-09-15T03:40:28.553Z,20.67
2022-09-15T03:43:18.520Z,22.35
2022-09-15T03:46:05.850Z,22.30
2022-09-15T03:48:50.867Z,22.77
2022-09-15T03:51:35.883Z,23.08
2022-09-15T03:54:20.961Z,24.25
2022-09-15T03:57:06.034Z,24.83
2022-09-15T03:59:50.944Z,26.48
2022-09-15T04:02:35.903Z,29.52
2022-09-15T04:05:20.849Z,28.98
2022-09-15T04:08:05.726Z,26.23
2022-09-15T04:10:50.669Z,28.15
2022-09-15T04:13:37.312Z,27.73
2022-09-15T04:16:23.959Z,30.35
2022-09-15T04:19:08.827Z,27.58
2022-09-15T04:21:53.775Z,27.92
2022-09-15T04:24:38.872Z,29.13
2022-09-15T04:27:23.911Z,31.35
2022-09-15T04:30:09.404Z,28.02
2022-09-15T04:32:54.246Z,27.60
2022-09-15T04:35:39.482Z,28.05
2022-09-15T04:38:24.431Z,29.58
2022-09-15T04:41:10.173Z,29.60
2022-09-15T04:43:55.244Z,28.55
2022-09-15T04:46:40.182Z,30.33
2022-09-15T04:49:25.083Z,25.85
2022-09-15T04:52:09.969Z,27.55
2022-09-15T04:54:55.069Z,26.70
2022-09-15T04:57:39.975Z,28.27
2022-09-15T05:00:26.356Z,24.67
2022-09-15T05:03:13.963Z,28.73
2022-09-15T05:05:58.934Z,26.67
2022-09-15T05:08:52.174Z,27.88
2022-09-15T05:11:38.046Z,30.58
2022-09-15T05:14:22.804Z,31.00
2022-09-15T05:17:08.104Z,31.17
2022-09-15T05:19:54.032Z,30.08
2022-09-15T05:22:41.867Z,34.20
2022-09-15T05:25:27.721Z,34.65
2022-09-15T05:28:15.645Z,33.13
2022-09-15T05:31:02.815Z,30.63
2022-09-15T05:33:50.055Z,30.75
2022-09-15T05:36:35.782Z,31.25
2022-09-15T05:39:21.229Z,27.83
2022-09-15T05:42:09.900Z,31.20
2022-09-15T05:44:56.017Z,31.83
2022-09-15T05:47:41.007Z,36.88
2022-09-15T05:50:26.062Z,30.95
2022-09-15T05:53:11.035Z,35.10
2022-09-15T05:55:57.802Z,34.67
2022-09-15T05:58:56.525Z,37.30
2022-09-15T06:01:42.676Z,36.60
2022-09-15T06:04:27.738Z,35.72
2022-09-15T06:07:12.664Z,37.10
2022-09-15T06:09:57.567Z,32.60
2022-09-15T06:12:42.428Z,30.33
2022-09-15T06:15:27.389Z,33.67
2022-09-15T06:18:12.662Z,34.47
2022-09-15T06:21:04.079Z,35.72
2022-09-15T06:24:00.835Z,33.58
2022-09-15T06:26:48.413Z,29.63
2022-09-15T06:29:33.489Z,35.83
2022-09-15T06:32:18.652Z,34.33
2022-09-15T06:35:06.729Z,38.63
2022-09-15T06:37:56.174Z,31.42
2022-09-15T06:41:10.116Z,32.40
2022-09-15T06:48:24.813Z,26.80
2022-09-15T07:13:25.150Z,28.75
2022-09-15T07:17:00.570Z,24.98
2022-09-15T07:19:51.668Z,26.35
2022-09-15T07:22:36.589Z,24.65
2022-09-15T07:25:30.529Z,24.33
2022-09-15T07:28:41.295Z,21.35
2022-09-15T07:31:29.317Z,23.80
2022-09-15T07:34:15.427Z,23.67
2022-09-15T07:37:00.178Z,21.55
2022-09-15T07:39:45.826Z,21.13
2022-09-15T07:42:35.278Z,20.40
2022-09-15T07:45:21.558Z,21.17
2022-09-15T07:48:06.442Z,21.08
2022-09-15T07:50:51.621Z,19.02
2022-09-15T07:53:36.732Z,22.40
2022-09-15T07:56:22.768Z,21.35
2022-09-15T07:59:07.603Z,20.65
2022-09-15T08:01:52.637Z,20.42
2022-09-15T08:04:37.362Z,20.35
2022-09-15T08:07:22.576Z,20.77
2022-09-15T08:10:09.318Z,22.77
2022-09-15T08:12:58.533Z,22.27
2022-09-15T08:15:44.670Z,21.42
2022-09-15T08:18:29.607Z,21.73
2022-09-15T08:21:23.175Z,21.00
2022-09-15T08:24:12.900Z,21.75
2022-09-15T08:26:57.684Z,21.38
2022-09-15T08:29:43.925Z,23.05
2022-09-15T08:32:29.298Z,22.25
2022-09-15T08:35:16.306Z,19.90
2022-09-15T08:38:02.415Z,22.05
2022-09-15T08:40:47.663Z,21.70
2022-09-15T08:43:45.698Z,20.38
2022-09-15T08:46:42.368Z,22.17
2022-09-15T08:49:51.535Z,18.30
2022-09-15T08:53:01.266Z,15.25
2022-09-15T08:55:55.144Z,14.82
2022-09-15T08:58:40.294Z,13.45
2022-09-15T09:02:06.835Z,11.18
2022-09-15T09:05:29.587Z,10.32
2022-09-15T09:08:52.907Z,10.80
2022-09-15T09:12:22.294Z,8.38
2022-09-15T09:15:42.817Z,8.93
2022-09-15T09:19:03.264Z,10.95
2022-09-15T09:22:05.742Z,7.85
2022-09-15T09:24:53.874Z,11.68
2022-09-15T09:27:40.782Z,8.73
2022-09-15T09:30:29.045Z,8.88
2022-09-15T09:33:38.699Z,9.82
2022-09-15T09:36:25.301Z,9.98
2022-09-15T09:39:14.672Z,11.23
2022-09-15T09:42:01.696Z,9.35
2022-09-15T09:44:46.932Z,9.15
2022-09-15T09:47:36.085Z,9.80
2022-09-15T09:50:38.147Z,10.23
2022-09-15T09:53:32.039Z,9.30
2022-09-15T10:00:40.089Z,10.82
2022-09-15T10:07:24.181Z,10.93
2022-09-15T10:10:22.482Z,11.30
2022-09-15T10:13:10.754Z,12.45
2022-09-15T10:15:59.759Z,12.95
2022-09-15T10:18:45.055Z,15.13
2022-09-15T10:21:29.890Z,12.60
2022-09-15T10:24:44.144Z,15.13
2022-09-15T10:27:34.127Z,15.57
2022-09-15T10:30:19.385Z,13.30
2022-09-15T10:33:24.918Z,14.20
2022-09-15T10:36:30.306Z,15.50
2022-09-15T10:44:01.557Z,14.63
2022-09-15T10:47:07.827Z,20.15
2022-09-15T10:50:25.239Z,17.25
2022-09-15T10:53:52.774Z,17.52
2022-09-15T10:56:43.562Z,17.27
2022-09-15T11:03:26.814Z,17.55
2022-09-15T11:06:22.507Z,18.48
2022-09-15T11:09:17.247Z,19.98
2022-09-15T11:12:34.943Z,19.08
2022-09-15T11:16:01.918Z,20.55
2022-09-15T11:18:49.578Z,20.80
2022-09-15T11:21:51.516Z,22.08
2022-09-15T11:25:23.999Z,24.00
2022-09-15T11:28:35.228Z,25.33
2022-09-15T11:31:48.784Z,27.55
2022-09-15T11:34:46.478Z,26.08
2022-09-15T11:40:38.814Z,25.10
2022-09-15T11:43:49.847Z,30.17
2022-09-15T11:46:45.159Z,28.23
2022-09-15T11:50:18.366Z,29.50
2022-09-15T11:53:11.662Z,32.42
2022-09-15T11:56:09.147Z,32.65
2022-09-15T11:59:32.815Z,30.38
2022-09-15T12:02:45.544Z,30.98
2022-09-15T12:05:48.626Z,34.00
2022-09-15T12:09:00.225Z,31.50
2022-09-15T12:11:49.167Z,36.25
2022-09-15T12:14:44.083Z,35.45
2022-09-15T12:18:06.570Z,34.90
2022-09-15T12:21:30.955Z,36.50
2022-09-15T12:24:45.276Z,35.42
2022-09-15T12:27:30.936Z,37.15
2022-09-15T12:30:39.781Z,37.00
2022-09-15T12:33:42.895Z,36.67
2022-09-15T12:36:30.955Z,36.33
2022-09-15T12:39:29.029Z,36.00
2022-09-15T12:42:27.274Z,39.65
2022-09-15T12:45:31.198Z,37.08
2022-09-15T12:48:24.335Z,39.58
2022-09-15T12:51:10.847Z,36.08
2022-09-15T12:54:00.014Z,42.35
2022-09-15T12:56:51.721Z,45.55
2022-09-15T12:59:36.495Z,42.75
2022-09-15T13:02:44.503Z,39.60
2022-09-15T13:05:41.193Z,39.70
2022-09-15T13:08:29.229Z,39.22
2022-09-15T13:11:23.255Z,37.75
2022-09-15T13:14:19.170Z,38.70
2022-09-15T13:17:17.890Z,36.97
2022-09-15T13:20:14.940Z,33.00
2022-09-15T13:23:03.007Z,26.40
2022-09-15T13:25:49.503Z,25.05
2022-09-15T13:28:36.701Z,22.60
2022-09-15T13:31:29.142Z,20.33
2022-09-15T13:38:16.922Z,17.23
2022-09-15T13:41:18.679Z,18.90
2022-09-15T13:44:24.666Z,22.95
2022-09-15T13:47:25.828Z,17.52
2022-09-15T13:50:21.157Z,19.88
2022-09-15T13:53:43.250Z,20.75
2022-09-15T13:56:40.764Z,22.50
2022-09-15T13:59:30.550Z,24.33
2022-09-15T14:02:16.241Z,24.77
2022-09-15T14:05:01.242Z,28.25
2022-09-15T14:07:59.195Z,28.08
2022-09-15T14:10:52.191Z,32.35
2022-09-15T14:13:42.961Z,32.85
2022-09-15T14:16:36.615Z,28.27
2022-09-15T14:19:27.713Z,34.72
2022-09-15T14:22:27.656Z,31.83
2022-09-15T14:25:16.487Z,26.15
2022-09-15T14:28:01.761Z,20.70
2022-09-15T14:30:47.878Z,16.02
2022-09-15T14:33:38.174Z,15.13
2022-09-15T14:36:31.350Z,15.38
2022-09-15T14:39:22.974Z,17.23
2022-09-15T14:42:21.948Z,18.10
2022-09-15T14:48:18.160Z,21.05
2022-09-15T14:51:12.764Z,20.65
2022-09-15T14:53:59.814Z,22.65
2022-09-15T14:56:45.726Z,22.33
2022-09-15T14:59:43.754Z,23.83
2022-09-15T15:02:57.746Z,23.92
2022-09-15T15:05:47.173Z,23.77
2022-09-15T15:08:51.793Z,23.58
2022-09-15T15:11:39.535Z,22.08
2022-09-15T15:14:25.510Z,23.20
2022-09-15T15:17:29.699Z,22.85
2022-09-15T15:20:29.706Z,25.65
2022-09-15T15:23:19.753Z,24.13
2022-09-15T15:26:37.478Z,24.30
2022-09-15T15:29:54.571Z,27.17
2022-09-15T15:32:42.447Z,25.08
2022-09-15T15:35:28.655Z,23.83
2022-09-15T15:38:19.783Z,26.23
2022-09-15T15:41:05.844Z,22.77
2022-09-15T15:44:07.268Z,22.60
2022-09-15T15:47:01.874Z,22.70
2022-09-15T15:50:11.761Z,21.83
2022-09-15T15:52:52.354Z,16.60
2022-09-15T15:55:40.147Z,17.10
2022-09-15T15:58:24.861Z,17.83
2022-09-15T16:01:11.213Z,17.05
2022-09-15T16:03:56.390Z,18.33
2022-09-15T16:06:42.937Z,19.25
2022-09-15T16:09:27.814Z,18.23
2022-09-15T16:12:14.901Z,19.60
2022-09-15T16:14:59.529Z,18.52
2022-09-15T16:17:46.851Z,18.35
2022-09-15T16:20:31.969Z,17.65
2022-09-15T16:23:19.161Z,19.10
2022-09-15T16:26:04.941Z,17.30
2022-09-15T16:28:50.730Z,19.42
2022-09-15T16:31:36.113Z,14.70
2022-09-15T16:34:21.926Z,15.52
2022-09-15T16:37:06.982Z,15.32
2022-09-15T16:39:52.008Z,12.90
2022-09-15T16:42:37.084Z,13.30
2022-09-15T16:45:28.268Z,14.85
2022-09-15T16:48:13.270Z,12.02
2022-09-15T16:54:02.776Z,15.32
2022-09-15T16:56:47.781Z,14.43
2022-09-15T16:59:32.707Z,14.40
2022-09-15T17:02:18.363Z,14.07
2022-09-15T17:05:15.637Z,15.63
2022-09-15T17:08:00.944Z,17.10
2022-09-15T17:10:47.007Z,17.15
2022-09-15T17:13:33.433Z,16.52
2022-09-15T17:16:19.088Z,16.23
2022-09-15T17:19:03.795Z,16.52
2022-09-15T17:21:49.689Z,16.45
2022-09-15T17:24:34.526Z,17.90
2022-09-15T17:27:19.320Z,15.88
2022-09-15T17:30:05.122Z,14.50
2022-09-15T17:32:50.904Z,16.70
2022-09-15T17:35:36.396Z,15.57
2022-09-15T17:38:21.889Z,15.25
2022-09-15T17:41:18.033Z,15.60
2022-09-15T17:44:02.717Z,18.23
2022-09-15T17:46:47.798Z,18.40
2022-09-15T17:49:32.597Z,18.90
2022-09-15T17:52:17.856Z,18.83
2022-09-15T17:55:12.408Z,17.92
2022-09-15T17:57:59.626Z,16.77
2022-09-15T18:00:45.806Z,16.02
2022-09-15T18:03:36.363Z,15.65
2022-09-15T18:06:20.905Z,14.25
2022-09-15T18:09:06.054Z,13.90
2022-09-15T18:11:50.857Z,14.00
2022-09-15T18:14:35.983Z,13.55
2022-09-15T18:17:20.970Z,11.82
2022-09-15T18:20:06.008Z,13.35
2022-09-15T18:22:51.551Z,13.38
2022-09-15T18:25:36.236Z,11.98
2022-09-15T18:28:21.236Z,12.77
2022-09-15T18:31:06.738Z,11.00
2022-09-15T18:33:51.772Z,10.00
2022-09-15T18:36:36.797Z,11.18
2022-09-15T18:39:21.805Z,11.55
2022-09-15T18:42:06.918Z,11.27
2022-09-15T18:44:51.922Z,11.23
2022-09-15T18:47:37.165Z,10.88
2022-09-15T18:50:23.339Z,11.20
2022-09-15T18:53:08.918Z,11.43
2022-09-15T18:55:53.714Z,10.32
2022-09-15T18:58:38.774Z,9.18
2022-09-15T19:01:23.738Z,9.70
2022-09-15T19:04:08.740Z,9.73
2022-09-15T19:06:53.540Z,9.25
2022-09-15T19:09:39.248Z,9.02
2022-09-15T19:12:24.489Z,10.02
2022-09-15T19:15:11.701Z,11.48
2022-09-15T19:17:56.447Z,9.32
2022-09-15T19:20:41.446Z,10.80
2022-09-15T19:23:26.193Z,10.73
2022-09-15T19:26:14.794Z,10.15
2022-09-15T19:28:59.764Z,11.52
2022-09-15T19:31:44.770Z,11.80
2022-09-15T19:34:29.897Z,11.63
2022-09-15T19:37:18.810Z,11.32
2022-09-15T19:40:07.834Z,12.18
2022-09-15T19:42:52.967Z,13.43
2022-09-15T19:45:41.750Z,11.43
2022-09-15T19:48:27.207Z,11.60
2022-09-15T19:51:13.977Z,11.20
2022-09-15T19:53:59.300Z,10.77
2022-09-15T19:56:44.055Z,13.23
2022-09-15T19:59:31.718Z,13.93
2022-09-15T20:02:17.030Z,14.43
2022-09-15T20:05:01.899Z,14.90
2022-09-15T20:07:47.507Z,14.32
2022-09-15T20:10:32.224Z,13.20
2022-09-15T20:13:17.993Z,13.68
2022-09-15T20:16:03.371Z,13.52
2022-09-15T20:18:50.125Z,12.63
2022-09-15T20:21:52.522Z,11.45
2022-09-15T20:24:37.510Z,11.63
2022-09-15T20:27:22.486Z,10.98
2022-09-15T20:30:07.936Z,9.13
2022-09-15T20:32:52.847Z,9.05
2022-09-15T20:35:37.817Z,10.40
2022-09-15T20:38:22.877Z,11.48
2022-09-15T20:41:09.634Z,10.25
2022-09-15T20:43:54.650Z,14.02
2022-09-15T20:46:40.242Z,11.93
2022-09-15T20:49:25.263Z,11.75
2022-09-15T20:52:10.756Z,13.60
2022-09-15T20:54:55.672Z,13.35
2022-09-15T20:57:40.423Z,11.15
2022-09-15T21:00:27.775Z,12.38
2022-09-15T21:03:15.383Z,12.98
2022-09-15T21:06:06.030Z,13.45
2022-09-15T21:08:52.378Z,14.52
2022-09-15T21:11:37.116Z,13.52
2022-09-15T21:14:22.037Z,15.50
2022-09-15T21:17:07.123Z,15.30
2022-09-15T21:19:51.908Z,15.18
2022-09-15T21:22:37.341Z,17.40
2022-09-15T21:25:22.811Z,16.92
2022-09-15T21:28:07.819Z,22.40
2022-09-15T21:30:53.382Z,16.30
2022-09-15T21:33:38.722Z,21.25
2022-09-15T21:36:29.012Z,21.15
2022-09-15T21:39:13.953Z,19.33
2022-09-15T21:41:58.807Z,21.77
2022-09-15T21:44:44.017Z,20.50
2022-09-15T21:47:29.507Z,22.15
2022-09-15T21:50:14.223Z,21.83
2022-09-15T21:52:59.031Z,21.60
2022-09-15T21:55:44.265Z,21.75
2022-09-15T21:58:35.414Z,21.50
2022-09-15T22:01:24.646Z,20.48
2022-09-15T22:04:10.395Z,20.98
2022-09-15T22:06:55.319Z,22.17
2022-09-15T22:09:40.194Z,21.08
2022-09-15T22:12:25.291Z,20.35
2022-09-15T22:15:10.356Z,20.27
2022-09-15T22:17:55.351Z,21.08
2022-09-15T22:20:40.312Z,19.50
2022-09-15T22:23:25.364Z,22.90
2022-09-15T22:26:22.195Z,22.05
2022-09-15T22:29:07.341Z,24.83
2022-09-15T22:31:52.317Z,21.55
2022-09-15T22:34:37.266Z,24.42
2022-09-15T22:37:26.878Z,21.33
2022-09-15T22:40:11.867Z,24.65
2022-09-15T22:42:57.229Z,22.85
2022-09-15T22:45:42.126Z,27.42
2022-09-15T22:48:27.371Z,26.63
2022-09-15T22:51:12.929Z,28.10
2022-09-15T22:53:57.802Z,26.50
2022-09-15T22:56:42.699Z,24.50
2022-09-15T22:59:27.412Z,24.73
2022-09-15T23:02:12.508Z,29.63
2022-09-15T23:04:57.507Z,23.77
2022-09-15T23:07:42.481Z,23.50
2022-09-15T23:10:27.914Z,31.60
2022-09-15T23:13:13.033Z,30.02
2022-09-15T23:15:58.083Z,30.25
2022-09-15T23:18:43.134Z,25.98
2022-09-15T23:21:28.088Z,28.58
2022-09-15T23:24:13.726Z,26.77
2022-09-15T23:26:58.685Z,24.33
2022-09-15T23:29:43.456Z,23.42
2022-09-15T23:32:28.130Z,24.45
2022-09-15T23:35:13.212Z,27.25
2022-09-15T23:37:58.716Z,27.33
2022-09-15T23:40:44.407Z,25.30
2022-09-15T23:43:30.028Z,23.80
2022-09-15T23:46:15.649Z,24.05
2022-09-15T23:49:00.666Z,25.80
2022-09-15T23:51:45.680Z,26.42
2022-09-15T23:54:30.632Z,23.60
2022-09-15T23:57:15.587Z,21.42
